Time;durP1;ratioP1;P1;durP2;ratioP2;P2;SDS_P1;SDS_P2;PMS_P1;PMS_P2;Temp;Humidity;BMP_temperature;BMP_pressure;BME280_temperature;BME280_humidity;BME280_pressure;Samples;Min_cycle;Max_cycle;Signal;HPM_P1;HPM_P2
2022/01/27 00:01:15;;;;;;;8.40;3.75;;;;;;;;;;5049647;28;20412;-81
2022/01/27 00:03:50;;;;;;;7.60;4.20;;;;;;;;;;5056287;28;20488;-82
2022/01/27 00:06:16;;;;;;;7.50;3.72;;;;;;;;;;5058489;28;20545;-82
2022/01/27 00:08:49;;;;;;;4.80;3.03;;;;;;;;;;5052105;28;20029;-80
2022/01/27 00:11:15;;;;;;;6.55;3.13;;;;;;;;;;5059286;28;20032;-80
2022/01/27 00:14:04;;;;;;;8.85;3.80;;;;;;;;;;5056173;28;20029;-81
2022/01/27 00:16:31;;;;;;;6.53;3.47;;;;;;;;;;5058586;28;20049;-81
2022/01/27 00:18:57;;;;;;;7.35;3.42;;;;;;;;;;5050656;28;20017;-82
2022/01/27 00:21:30;;;;;;;7.28;4.07;;;;;;;;;;5059559;28;20040;-80
2022/01/27 00:23:57;;;;;;;9.20;4.00;;;;;;;;;;5057555;28;20514;-81
2022/01/27 00:26:22;;;;;;;6.43;3.60;;;;;;;;;;5055972;28;20044;-81
2022/01/27 00:28:49;;;;;;;6.53;3.97;;;;;;;;;;5061821;28;20024;-81
2022/01/27 00:31:17;;;;;;;10.00;4.82;;;;;;;;;;5064541;28;20380;-81
2022/01/27 00:33:44;;;;;;;5.68;2.65;;;;;;;;;;5061791;28;20025;-80
2022/01/27 00:36:09;;;;;;;4.75;2.60;;;;;;;;;;5057876;28;20361;-80
2022/01/27 00:38:35;;;;;;;8.55;4.43;;;;;;;;;;5057738;28;20031;-80
2022/01/27 00:41:01;;;;;;;4.63;2.28;;;;;;;;;;5053400;28;20021;-81
2022/01/27 00:43:26;;;;;;;5.60;2.95;;;;;;;;;;5056381;28;20032;-81
2022/01/27 00:45:52;;;;;;;5.18;3.10;;;;;;;;;;5057156;28;20041;-79
2022/01/27 00:48:18;;;;;;;4.45;2.90;;;;;;;;;;5060474;28;20473;-83
2022/01/27 00:50:48;;;;;;;5.18;2.05;;;;;;;;;;5053656;28;20039;-82
2022/01/27 00:53:29;;;;;;;5.38;3.50;;;;;;;;;;5055714;28;20032;-82
2022/01/27 00:55:58;;;;;;;4.53;2.42;;;;;;;;;;5057337;28;20047;-81
2022/01/27 01:00:56;;;;;;;5.03;2.53;;;;;;;;;;5063190;28;20028;-80
2022/01/27 01:03:34;;;;;;;2.70;1.80;;;;;;;;;;5058353;28;20056;-82
2022/01/27 01:29:22;;;;;;;4.00;2.45;;;;;;;;;;5052035;28;20075;-81
2022/01/27 01:29:55;;;;;;;1.73;1.10;;;;;;;;;;5052089;28;20043;-83
2022/01/27 01:32:47;;;;;;;2.72;1.60;;;;;;;;;;5058889;28;20056;-83
2022/01/27 01:35:13;;;;;;;3.55;2.28;;;;;;;;;;5061435;28;20036;-81
2022/01/27 01:37:41;;;;;;;4.05;2.20;;;;;;;;;;5061073;28;20024;-79
2022/01/27 01:40:11;;;;;;;2.78;1.58;;;;;;;;;;5054098;28;20471;-81
2022/01/27 01:42:37;;;;;;;4.63;2.22;;;;;;;;;;5054924;28;20063;-81
2022/01/27 01:45:19;;;;;;;2.70;1.50;;;;;;;;;;5058785;28;20028;-80
2022/01/27 01:47:45;;;;;;;2.75;1.30;;;;;;;;;;5052971;28;20048;-83
2022/01/27 01:50:13;;;;;;;1.63;1.20;;;;;;;;;;5054147;28;20024;-82
2022/01/27 01:52:39;;;;;;;3.63;1.67;;;;;;;;;;5058198;28;20024;-82
2022/01/27 01:55:06;;;;;;;2.38;1.52;;;;;;;;;;5059480;28;20506;-80
2022/01/27 01:57:32;;;;;;;2.40;1.27;;;;;;;;;;5057089;28;20056;-84
2022/01/27 01:59:59;;;;;;;3.42;1.17;;;;;;;;;;5058576;28;20110;-82
2022/01/27 02:02:24;;;;;;;5.72;2.47;;;;;;;;;;5059057;28;20116;-82
2022/01/27 02:04:50;;;;;;;2.47;1.20;;;;;;;;;;5056897;28;20023;-82
2022/01/27 02:10:11;;;;;;;3.45;1.60;;;;;;;;;;5060873;28;20107;-84
2022/01/27 02:18:08;;;;;;;2.10;1.23;;;;;;;;;;5058456;28;20489;-81
2022/01/27 02:20:38;;;;;;;3.45;1.95;;;;;;;;;;5060265;28;20028;-83
2022/01/27 02:23:08;;;;;;;1.95;1.08;;;;;;;;;;5056518;28;20033;-81
2022/01/27 02:25:35;;;;;;;4.13;1.75;;;;;;;;;;5052548;28;20032;-81
2022/01/27 02:28:02;;;;;;;1.55;1.13;;;;;;;;;;5065208;28;20028;-81
2022/01/27 02:30:28;;;;;;;1.70;1.00;;;;;;;;;;5052127;28;20040;-81
2022/01/27 02:32:54;;;;;;;2.67;1.40;;;;;;;;;;5054203;28;20147;-82
2022/01/27 02:35:25;;;;;;;1.35;1.00;;;;;;;;;;5068179;28;20032;-81
2022/01/27 02:37:51;;;;;;;1.55;1.00;;;;;;;;;;5058686;28;20119;-82
2022/01/27 02:40:25;;;;;;;2.20;1.30;;;;;;;;;;5058048;28;20032;-80
2022/01/27 02:42:53;;;;;;;1.80;1.05;;;;;;;;;;5049858;28;20032;-81
2022/01/27 02:45:32;;;;;;;2.25;1.15;;;;;;;;;;5057835;28;20031;-80
2022/01/27 02:47:58;;;;;;;2.13;1.52;;;;;;;;;;5055234;28;20036;-81
2022/01/27 02:50:23;;;;;;;2.47;1.40;;;;;;;;;;5058564;28;20377;-81
2022/01/27 02:52:49;;;;;;;2.17;1.40;;;;;;;;;;5052615;28;20020;-80
2022/01/27 02:55:14;;;;;;;2.30;1.27;;;;;;;;;;5059623;28;20961;-81
2022/01/27 02:57:40;;;;;;;1.70;1.30;;;;;;;;;;5055111;28;20051;-81
2022/01/27 03:00:06;;;;;;;1.92;1.35;;;;;;;;;;5053156;28;20044;-80
2022/01/27 03:02:34;;;;;;;4.20;1.63;;;;;;;;;;5053303;28;20112;-80
2022/01/27 03:04:59;;;;;;;3.30;1.98;;;;;;;;;;5058590;28;20039;-80
2022/01/27 03:07:25;;;;;;;3.65;1.80;;;;;;;;;;5054763;28;20024;-82
2022/01/27 03:09:50;;;;;;;4.35;1.40;;;;;;;;;;5054568;28;20028;-82
2022/01/27 03:12:17;;;;;;;4.82;2.30;;;;;;;;;;5061369;28;20035;-81
2022/01/27 03:14:43;;;;;;;4.32;2.75;;;;;;;;;;5062858;28;20429;-81
2022/01/27 03:17:10;;;;;;;2.38;1.70;;;;;;;;;;5057103;28;20178;-81
2022/01/27 03:19:36;;;;;;;3.75;2.05;;;;;;;;;;5056622;28;20044;-80
2022/01/27 03:22:04;;;;;;;4.72;2.53;;;;;;;;;;5062711;28;20021;-81
2022/01/27 03:24:30;;;;;;;3.65;2.20;;;;;;;;;;5058480;28;20035;-82
2022/01/27 03:26:56;;;;;;;3.63;1.98;;;;;;;;;;5065860;28;20051;-80
2022/01/27 03:29:23;;;;;;;4.13;2.60;;;;;;;;;;5060250;28;20035;-82
2022/01/27 03:31:49;;;;;;;3.95;2.63;;;;;;;;;;5065207;28;20111;-83
2022/01/27 03:34:16;;;;;;;3.78;1.98;;;;;;;;;;5062314;28;20476;-81
2022/01/27 03:36:41;;;;;;;3.90;1.48;;;;;;;;;;5063647;28;20470;-81
2022/01/27 03:39:08;;;;;;;2.35;1.50;;;;;;;;;;5065336;28;20024;-80
2022/01/27 03:41:36;;;;;;;2.17;1.67;;;;;;;;;;5067256;28;20102;-82
2022/01/27 03:44:03;;;;;;;6.47;2.05;;;;;;;;;;5057521;28;20028;-80
2022/01/27 03:46:28;;;;;;;3.88;1.83;;;;;;;;;;5060936;28;20039;-82
2022/01/27 03:48:54;;;;;;;2.72;1.92;;;;;;;;;;5064939;28;20024;-83
2022/01/27 03:51:20;;;;;;;3.53;1.90;;;;;;;;;;5062750;28;20025;-81
2022/01/27 03:53:45;;;;;;;2.92;2.13;;;;;;;;;;5060953;28;20087;-80
2022/01/27 03:56:11;;;;;;;3.63;2.40;;;;;;;;;;5064759;28;20052;-80
2022/01/27 03:58:36;;;;;;;3.90;2.03;;;;;;;;;;5056544;28;20423;-82
2022/01/27 04:01:04;;;;;;;4.05;2.35;;;;;;;;;;5063859;28;21895;-80
2022/01/27 04:03:32;;;;;;;4.05;2.80;;;;;;;;;;5053627;28;20899;-81
2022/01/27 04:06:05;;;;;;;2.78;1.70;;;;;;;;;;5058837;28;20111;-81
2022/01/27 04:08:30;;;;;;;2.58;1.70;;;;;;;;;;5070141;28;20027;-81
2022/01/27 04:10:55;;;;;;;4.13;2.10;;;;;;;;;;5057520;28;20041;-80
2022/01/27 04:13:21;;;;;;;6.88;4.25;;;;;;;;;;5059374;28;20112;-80
2022/01/27 04:15:46;;;;;;;5.35;3.05;;;;;;;;;;5060791;28;20429;-81
2022/01/27 04:18:12;;;;;;;3.80;2.70;;;;;;;;;;5058547;28;20134;-80
2022/01/27 04:20:40;;;;;;;2.85;1.98;;;;;;;;;;5068258;28;20365;-83
2022/01/27 04:23:06;;;;;;;3.83;2.53;;;;;;;;;;5065602;28;20033;-80
2022/01/27 04:25:32;;;;;;;4.07;3.17;;;;;;;;;;5067118;28;20040;-81
2022/01/27 04:28:02;;;;;;;4.80;2.80;;;;;;;;;;5060596;28;20044;-79
2022/01/27 04:30:28;;;;;;;4.05;2.70;;;;;;;;;;5057585;28;20052;-80
2022/01/27 04:32:58;;;;;;;4.30;2.42;;;;;;;;;;5064772;28;20106;-82
2022/01/27 04:35:27;;;;;;;4.07;2.55;;;;;;;;;;5055315;28;20551;-81
2022/01/27 04:38:06;;;;;;;4.90;2.88;;;;;;;;;;5065508;28;20020;-81
2022/01/27 04:40:39;;;;;;;3.80;2.75;;;;;;;;;;5056024;28;20024;-80
2022/01/27 04:43:18;;;;;;;5.32;3.63;;;;;;;;;;5058733;28;20032;-81
2022/01/27 04:48:18;;;;;;;4.20;2.63;;;;;;;;;;5056803;28;20028;-82
2022/01/27 04:50:43;;;;;;;2.72;2.00;;;;;;;;;;5061241;28;20032;-80
2022/01/27 04:53:16;;;;;;;7.50;3.78;;;;;;;;;;5059982;28;20362;-82
2022/01/27 04:55:42;;;;;;;6.65;3.78;;;;;;;;;;5064907;28;20024;-82
2022/01/27 04:58:24;;;;;;;4.82;2.55;;;;;;;;;;5058721;28;20162;-81
2022/01/27 05:00:50;;;;;;;6.30;2.85;;;;;;;;;;5059163;28;20054;-82
2022/01/27 05:03:30;;;;;;;4.25;2.97;;;;;;;;;;5062023;28;20029;-82
2022/01/27 05:05:56;;;;;;;5.90;3.63;;;;;;;;;;5059844;28;20037;-82
2022/01/27 05:08:22;;;;;;;8.25;3.05;;;;;;;;;;5054386;28;20029;-81
2022/01/27 05:10:56;;;;;;;6.07;2.78;;;;;;;;;;5058719;28;20037;-80
2022/01/27 05:13:25;;;;;;;6.47;3.58;;;;;;;;;;5058761;28;20035;-80
2022/01/27 05:15:50;;;;;;;4.03;2.35;;;;;;;;;;5050479;28;20436;-78
2022/01/27 05:18:16;;;;;;;7.10;3.08;;;;;;;;;;5061704;28;20065;-80
2022/01/27 05:20:42;;;;;;;7.32;3.85;;;;;;;;;;5058977;28;20037;-80
2022/01/27 05:23:07;;;;;;;6.32;2.92;;;;;;;;;;5053289;28;20051;-81
2022/01/27 05:25:33;;;;;;;5.18;3.30;;;;;;;;;;5056722;28;20028;-79
2022/01/27 05:27:59;;;;;;;5.60;3.10;;;;;;;;;;5055582;28;20055;-82
2022/01/27 05:30:25;;;;;;;7.10;2.92;;;;;;;;;;5048949;28;20024;-78
2022/01/27 05:32:50;;;;;;;6.78;4.00;;;;;;;;;;5055994;28;20032;-82
2022/01/27 05:35:16;;;;;;;4.03;2.33;;;;;;;;;;5055766;28;20033;-78
2022/01/27 05:37:42;;;;;;;5.50;3.45;;;;;;;;;;5056060;28;20106;-81
2022/01/27 05:40:07;;;;;;;5.32;2.70;;;;;;;;;;5052528;28;20025;-80
2022/01/27 05:42:33;;;;;;;3.83;2.60;;;;;;;;;;5059878;28;20021;-79
2022/01/27 05:44:59;;;;;;;3.58;2.00;;;;;;;;;;5056201;28;20498;-81
2022/01/27 05:47:24;;;;;;;4.07;1.98;;;;;;;;;;5056990;28;20107;-79
2022/01/27 05:49:50;;;;;;;4.25;2.33;;;;;;;;;;5049526;28;20035;-78
2022/01/27 05:52:15;;;;;;;3.75;2.10;;;;;;;;;;5051846;28;20380;-78
2022/01/27 05:54:42;;;;;;;4.82;2.58;;;;;;;;;;5054045;28;20029;-81
2022/01/27 05:57:08;;;;;;;5.80;2.92;;;;;;;;;;5050086;28;20028;-82
2022/01/27 05:59:33;;;;;;;6.10;3.88;;;;;;;;;;5045483;28;20031;-81
2022/01/27 06:01:59;;;;;;;8.15;3.92;;;;;;;;;;5056461;28;20052;-81
2022/01/27 06:04:24;;;;;;;6.60;3.20;;;;;;;;;;5062710;28;20032;-81
2022/01/27 06:06:50;;;;;;;7.05;3.85;;;;;;;;;;5051471;28;20031;-78
2022/01/27 06:09:15;;;;;;;6.25;4.25;;;;;;;;;;5054606;28;20165;-80
2022/01/27 06:11:41;;;;;;;7.30;3.53;;;;;;;;;;5047495;28;20037;-79
2022/01/27 06:14:06;;;;;;;7.50;4.32;;;;;;;;;;5051473;28;20036;-77
2022/01/27 06:16:32;;;;;;;7.13;4.15;;;;;;;;;;5056861;28;20469;-79
2022/01/27 06:18:57;;;;;;;8.55;4.57;;;;;;;;;;5053096;28;20035;-81
2022/01/27 06:21:23;;;;;;;4.93;3.25;;;;;;;;;;5051262;28;20114;-81
2022/01/27 06:23:48;;;;;;;8.10;4.70;;;;;;;;;;5055173;28;20024;-80
2022/01/27 06:26:15;;;;;;;6.00;3.85;;;;;;;;;;5049841;28;20052;-79
2022/01/27 06:28:41;;;;;;;6.15;3.42;;;;;;;;;;5051190;28;20792;-79
2022/01/27 06:31:06;;;;;;;5.88;4.20;;;;;;;;;;5051292;28;20033;-78
2022/01/27 06:33:31;;;;;;;6.07;3.33;;;;;;;;;;5048388;28;20052;-76
2022/01/27 06:35:57;;;;;;;6.90;3.65;;;;;;;;;;5047221;28;20028;-78
2022/01/27 06:38:22;;;;;;;5.90;3.70;;;;;;;;;;5049214;28;20028;-81
2022/01/27 06:40:48;;;;;;;6.55;4.55;;;;;;;;;;5050444;28;20021;-78
2022/01/27 06:43:14;;;;;;;5.60;4.15;;;;;;;;;;5049456;28;20025;-79
2022/01/27 06:45:40;;;;;;;4.85;3.08;;;;;;;;;;5050719;28;20063;-79
2022/01/27 06:48:06;;;;;;;6.30;3.17;;;;;;;;;;5047154;28;20065;-77
2022/01/27 06:50:32;;;;;;;7.10;3.88;;;;;;;;;;5042103;28;20394;-79
2022/01/27 06:52:58;;;;;;;9.05;4.95;;;;;;;;;;5040696;28;20458;-80
2022/01/27 07:22:38;;;;;;;5.93;3.03;;;;;;;;;;5222496;23;20049;-78
2022/01/27 07:25:05;;;;;;;4.55;2.78;;;;;;;;;;5007784;28;20034;-78
2022/01/27 07:27:32;;;;;;;5.30;3.25;;;;;;;;;;4990646;28;20034;-78
2022/01/27 07:29:57;;;;;;;3.92;2.28;;;;;;;;;;5007174;28;20030;-77
2022/01/27 07:32:23;;;;;;;4.97;3.30;;;;;;;;;;5000244;28;20034;-79
2022/01/27 07:34:49;;;;;;;5.35;3.33;;;;;;;;;;4991284;28;20367;-77
2022/01/27 07:37:32;;;;;;;4.72;3.38;;;;;;;;;;4989332;28;20038;-79
2022/01/27 07:39:58;;;;;;;6.25;4.22;;;;;;;;;;4991874;28;20062;-79
2022/01/27 07:42:23;;;;;;;7.18;4.18;;;;;;;;;;4995589;28;20378;-78
2022/01/27 07:44:49;;;;;;;7.38;3.80;;;;;;;;;;5000746;28;20044;-80
2022/01/27 07:47:14;;;;;;;10.32;5.80;;;;;;;;;;4993900;28;20089;-78
2022/01/27 07:49:40;;;;;;;8.38;4.78;;;;;;;;;;4989350;28;20440;-80
2022/01/27 07:52:05;;;;;;;6.38;4.07;;;;;;;;;;4988376;28;20023;-80
2022/01/27 07:54:31;;;;;;;4.63;3.00;;;;;;;;;;4991534;28;20645;-79
2022/01/27 07:56:57;;;;;;;8.32;4.57;;;;;;;;;;4991852;28;20026;-77
2022/01/27 07:59:22;;;;;;;10.10;4.78;;;;;;;;;;4994869;28;20520;-78
2022/01/27 08:01:48;;;;;;;8.88;4.80;;;;;;;;;;4994068;28;20057;-79
2022/01/27 08:04:13;;;;;;;10.27;5.93;;;;;;;;;;4994143;28;20033;-77
2022/01/27 08:06:39;;;;;;;11.23;5.85;;;;;;;;;;4993541;28;20493;-78
2022/01/27 08:09:05;;;;;;;8.52;6.22;;;;;;;;;;4995412;28;20037;-77
2022/01/27 08:11:30;;;;;;;9.98;7.50;;;;;;;;;;4995809;28;20042;-78
2022/01/27 08:13:56;;;;;;;11.15;7.07;;;;;;;;;;4993705;28;20133;-78
2022/01/27 08:16:21;;;;;;;17.13;9.63;;;;;;;;;;4994411;28;20042;-79
2022/01/27 08:18:47;;;;;;;16.73;9.75;;;;;;;;;;4993268;28;20105;-81
2022/01/27 08:21:13;;;;;;;17.23;8.52;;;;;;;;;;4994992;28;20505;-81
2022/01/27 08:23:41;;;;;;;13.80;8.27;;;;;;;;;;5006826;28;20501;-81
2022/01/27 08:26:09;;;;;;;19.25;8.93;;;;;;;;;;5012714;28;20040;-78
2022/01/27 08:28:45;;;;;;;24.00;12.27;;;;;;;;;;5012202;28;20022;-78
2022/01/27 08:31:13;;;;;;;24.65;11.80;;;;;;;;;;5014385;28;20091;-79
2022/01/27 08:33:40;;;;;;;19.15;10.70;;;;;;;;;;5018019;28;20465;-78
2022/01/27 08:36:06;;;;;;;15.68;8.48;;;;;;;;;;5012815;28;20053;-78
2022/01/27 08:38:32;;;;;;;16.85;9.07;;;;;;;;;;5011483;28;20087;-78
2022/01/27 08:41:01;;;;;;;14.60;8.73;;;;;;;;;;5012210;28;20026;-79
2022/01/27 08:43:26;;;;;;;13.35;7.40;;;;;;;;;;5011607;28;20033;-79
2022/01/27 08:45:53;;;;;;;13.93;8.38;;;;;;;;;;5018229;28;20030;-79
2022/01/27 08:48:20;;;;;;;14.95;9.90;;;;;;;;;;5013651;28;20034;-78
2022/01/27 08:50:59;;;;;;;11.73;6.18;;;;;;;;;;5014854;28;20022;-79
2022/01/27 08:53:26;;;;;;;12.70;7.85;;;;;;;;;;5015689;28;20408;-80
2022/01/27 08:55:52;;;;;;;10.68;6.80;;;;;;;;;;5013031;28;20018;-80
2022/01/27 08:58:18;;;;;;;13.77;8.27;;;;;;;;;;5013037;28;20034;-79
2022/01/27 09:00:43;;;;;;;12.43;7.00;;;;;;;;;;5012682;28;20038;-80
2022/01/27 09:03:09;;;;;;;12.27;7.20;;;;;;;;;;5016665;28;20099;-79
2022/01/27 09:05:35;;;;;;;11.35;7.18;;;;;;;;;;5017173;28;20030;-81
2022/01/27 09:08:01;;;;;;;10.15;6.78;;;;;;;;;;5021713;28;20204;-81
2022/01/27 09:10:31;;;;;;;11.48;6.78;;;;;;;;;;5017475;28;20030;-78
2022/01/27 09:12:57;;;;;;;9.98;5.93;;;;;;;;;;5011930;28;20025;-77
2022/01/27 09:15:23;;;;;;;8.60;6.05;;;;;;;;;;5013363;28;20160;-79
2022/01/27 09:17:48;;;;;;;12.85;8.77;;;;;;;;;;5011274;28;20048;-80
2022/01/27 09:20:16;;;;;;;12.23;7.03;;;;;;;;;;5011771;28;20500;-80
2022/01/27 09:22:42;;;;;;;13.48;7.35;;;;;;;;;;5011152;28;20045;-78
2022/01/27 09:25:17;;;;;;;12.13;6.30;;;;;;;;;;5013873;28;20473;-79
2022/01/27 09:27:43;;;;;;;8.45;5.07;;;;;;;;;;5011023;28;20787;-82
2022/01/27 09:30:10;;;;;;;13.27;8.48;;;;;;;;;;5012030;28;20124;-80
2022/01/27 09:32:36;;;;;;;14.90;9.02;;;;;;;;;;5012289;28;20469;-79
2022/01/27 09:35:02;;;;;;;11.85;7.47;;;;;;;;;;5011429;28;20097;-80
2022/01/27 09:37:27;;;;;;;12.80;7.65;;;;;;;;;;5013708;28;20116;-81
2022/01/27 09:39:53;;;;;;;18.25;10.75;;;;;;;;;;5013182;28;20101;-79
2022/01/27 09:42:20;;;;;;;18.63;10.18;;;;;;;;;;5010492;28;20034;-79
2022/01/27 09:44:52;;;;;;;14.63;8.27;;;;;;;;;;5016694;28;20108;-80
2022/01/27 09:47:18;;;;;;;21.98;12.70;;;;;;;;;;5010982;28;20386;-79
2022/01/27 09:49:52;;;;;;;18.75;9.88;;;;;;;;;;5012271;28;20033;-80
2022/01/27 09:52:18;;;;;;;19.00;9.52;;;;;;;;;;5010518;28;20549;-80
2022/01/27 09:54:45;;;;;;;17.20;9.75;;;;;;;;;;5011422;28;20109;-77
2022/01/27 09:57:15;;;;;;;25.10;14.27;;;;;;;;;;5009608;28;20033;-79
2022/01/27 09:59:42;;;;;;;19.90;9.98;;;;;;;;;;5026289;28;20056;-79
2022/01/27 10:02:09;;;;;;;20.10;12.20;;;;;;;;;;5009527;28;20571;-79
2022/01/27 10:04:42;;;;;;;19.95;12.50;;;;;;;;;;5007849;28;20042;-78
2022/01/27 10:07:08;;;;;;;17.63;10.73;;;;;;;;;;5013026;28;20037;-80
2022/01/27 10:09:34;;;;;;;21.40;12.43;;;;;;;;;;5014409;28;20033;-79
2022/01/27 10:12:05;;;;;;;16.05;9.52;;;;;;;;;;5010475;28;20025;-80
2022/01/27 10:14:36;;;;;;;17.27;9.00;;;;;;;;;;5025589;28;20038;-80
2022/01/27 10:17:07;;;;;;;19.52;9.73;;;;;;;;;;5012562;28;20488;-79
2022/01/27 10:19:35;;;;;;;20.25;10.18;;;;;;;;;;5012356;28;20112;-79
2022/01/27 10:22:13;;;;;;;14.95;10.68;;;;;;;;;;5012463;28;20033;-78
2022/01/27 10:24:39;;;;;;;17.70;10.85;;;;;;;;;;5016627;28;20033;-79
2022/01/27 10:32:50;;;;;;;20.20;12.38;;;;;;;;;;5017203;28;20100;-81
2022/01/27 10:35:20;;;;;;;18.17;10.38;;;;;;;;;;5006398;28;20043;-80
2022/01/27 10:38:05;;;;;;;20.65;11.50;;;;;;;;;;5016571;28;20105;-80
2022/01/27 10:40:35;;;;;;;13.73;9.10;;;;;;;;;;5017566;28;20105;-80
2022/01/27 10:43:12;;;;;;;14.05;9.02;;;;;;;;;;5018654;28;20034;-79
2022/01/27 10:45:57;;;;;;;14.27;9.75;;;;;;;;;;5015305;28;20017;-81
2022/01/27 10:48:26;;;;;;;13.85;8.68;;;;;;;;;;5022348;28;20029;-80
2022/01/27 10:51:16;;;;;;;18.35;9.60;;;;;;;;;;5027610;28;20036;-79
2022/01/27 10:53:55;;;;;;;11.25;7.93;;;;;;;;;;5014667;28;20049;-81
2022/01/27 10:56:26;;;;;;;15.52;9.20;;;;;;;;;;5020869;28;20101;-80
2022/01/27 10:58:54;;;;;;;15.88;7.53;;;;;;;;;;5020295;28;20026;-80
2022/01/27 11:01:38;;;;;;;12.73;7.25;;;;;;;;;;5016980;28;20079;-80
2022/01/27 11:04:07;;;;;;;12.20;6.90;;;;;;;;;;5016025;28;20034;-82
2022/01/27 11:06:34;;;;;;;13.63;8.07;;;;;;;;;;5033197;28;20030;-81
2022/01/27 11:09:07;;;;;;;14.30;7.45;;;;;;;;;;5014431;28;20497;-82
2022/01/27 11:11:33;;;;;;;12.70;7.80;;;;;;;;;;5016904;28;20104;-81
2022/01/27 11:13:59;;;;;;;11.43;7.10;;;;;;;;;;5011811;28;20096;-80
2022/01/27 11:16:38;;;;;;;13.77;6.97;;;;;;;;;;5020367;28;20492;-80
2022/01/27 11:25:49;;;;;;;12.82;7.32;;;;;;;;;;5012793;28;20052;-83
2022/01/27 11:27:55;;;;;;;13.10;7.07;;;;;;;;;;5019558;28;20068;-80
2022/01/27 11:30:33;;;;;;;12.38;6.03;;;;;;;;;;5018551;28;20047;-81
2022/01/27 11:33:05;;;;;;;10.95;6.53;;;;;;;;;;5020874;28;20629;-81
2022/01/27 11:35:33;;;;;;;12.35;7.32;;;;;;;;;;5033073;28;20477;-82
2022/01/27 11:38:03;;;;;;;10.75;6.80;;;;;;;;;;5022269;28;20091;-82
2022/01/27 11:40:40;;;;;;;13.32;6.57;;;;;;;;;;5025624;28;20033;-81
2022/01/27 11:43:06;;;;;;;12.20;7.05;;;;;;;;;;5024428;28;20117;-82
2022/01/27 11:45:38;;;;;;;11.73;7.25;;;;;;;;;;5016232;28;20038;-80
2022/01/27 11:48:24;;;;;;;12.40;6.22;;;;;;;;;;5016551;28;20030;-80
2022/01/27 11:50:59;;;;;;;10.52;6.72;;;;;;;;;;5013956;28;20025;-84
2022/01/27 11:53:48;;;;;;;10.80;6.22;;;;;;;;;;5011055;28;20424;-82
2022/01/27 11:56:23;;;;;;;8.67;6.33;;;;;;;;;;5019910;28;20033;-83
2022/01/27 11:58:50;;;;;;;11.05;6.50;;;;;;;;;;5024822;28;20269;-81
2022/01/27 12:01:23;;;;;;;11.68;7.07;;;;;;;;;;5023461;28;20037;-81
2022/01/27 12:04:15;;;;;;;12.27;7.47;;;;;;;;;;5025349;28;20122;-83
2022/01/27 12:06:50;;;;;;;8.20;5.97;;;;;;;;;;5013228;28;20038;-81
2022/01/27 12:09:18;;;;;;;10.07;6.30;;;;;;;;;;5020975;28;20067;-83
2022/01/27 12:11:53;;;;;;;9.80;6.78;;;;;;;;;;5021552;28;20049;-81
2022/01/27 12:14:26;;;;;;;10.98;7.15;;;;;;;;;;5016213;28;20164;-81
2022/01/27 12:17:09;;;;;;;14.13;6.13;;;;;;;;;;5024298;28;20021;-81
2022/01/27 12:19:56;;;;;;;8.70;5.57;;;;;;;;;;5021501;28;20051;-81
2022/01/27 12:22:39;;;;;;;10.38;6.32;;;;;;;;;;5021436;28;20389;-82
2022/01/27 12:25:06;;;;;;;12.02;7.93;;;;;;;;;;5021220;28;20037;-81
2022/01/27 12:27:32;;;;;;;14.45;7.60;;;;;;;;;;5023334;28;20076;-81
2022/01/27 12:30:00;;;;;;;14.10;7.22;;;;;;;;;;5019029;28;20025;-80
2022/01/27 12:32:30;;;;;;;13.65;7.07;;;;;;;;;;5017450;28;22032;-79
2022/01/27 12:35:24;;;;;;;11.45;6.55;;;;;;;;;;5011483;28;20508;-81
2022/01/27 12:37:51;;;;;;;11.82;6.72;;;;;;;;;;5008251;28;20037;-79
2022/01/27 12:40:18;;;;;;;8.68;5.70;;;;;;;;;;5013537;28;20020;-79
2022/01/27 12:42:55;;;;;;;12.77;6.45;;;;;;;;;;5012014;28;20092;-80
2022/01/27 12:45:26;;;;;;;12.38;6.90;;;;;;;;;;5017211;28;20115;-79
2022/01/27 12:47:52;;;;;;;13.63;6.40;;;;;;;;;;5014860;28;20026;-80
2022/01/27 12:50:21;;;;;;;11.85;6.97;;;;;;;;;;5013958;28;20053;-80
2022/01/27 12:52:51;;;;;;;13.35;6.85;;;;;;;;;;5011951;28;20021;-79
2022/01/27 12:55:19;;;;;;;8.57;5.45;;;;;;;;;;5018159;28;20080;-80
2022/01/27 12:57:56;;;;;;;12.23;6.32;;;;;;;;;;5013545;28;20037;-79
2022/01/27 13:00:22;;;;;;;13.07;6.95;;;;;;;;;;5011741;28;20037;-78
2022/01/27 13:02:48;;;;;;;14.68;9.32;;;;;;;;;;5012899;28;20025;-80
2022/01/27 13:05:13;;;;;;;11.90;6.85;;;;;;;;;;5011746;28;20120;-80
2022/01/27 13:07:42;;;;;;;11.63;6.35;;;;;;;;;;5016459;28;20045;-80
2022/01/27 13:10:13;;;;;;;12.07;6.45;;;;;;;;;;5013030;28;20053;-80
2022/01/27 13:12:42;;;;;;;12.55;7.95;;;;;;;;;;5016435;28;20041;-80
2022/01/27 13:15:12;;;;;;;11.73;7.38;;;;;;;;;;5015730;28;20034;-79
2022/01/27 13:17:53;;;;;;;14.18;7.13;;;;;;;;;;5013733;28;20537;-78
2022/01/27 13:20:27;;;;;;;13.27;7.70;;;;;;;;;;5012300;28;20125;-78
2022/01/27 13:22:59;;;;;;;15.00;8.10;;;;;;;;;;5010269;28;20046;-79
2022/01/27 13:25:44;;;;;;;12.30;7.40;;;;;;;;;;5013619;28;20041;-78
2022/01/27 13:28:22;;;;;;;13.23;8.07;;;;;;;;;;5012176;28;20028;-79
2022/01/27 13:30:51;;;;;;;18.80;11.32;;;;;;;;;;5020085;28;20029;-78
2022/01/27 13:33:20;;;;;;;19.17;7.95;;;;;;;;;;5016300;28;20029;-78
2022/01/27 13:35:46;;;;;;;14.20;8.90;;;;;;;;;;5012549;28;20038;-80
2022/01/27 13:38:38;;;;;;;14.93;8.15;;;;;;;;;;5017134;28;20026;-78
2022/01/27 13:41:22;;;;;;;14.60;7.40;;;;;;;;;;5014005;28;20040;-78
2022/01/27 13:43:53;;;;;;;19.98;9.20;;;;;;;;;;5015044;28;20238;-80
2022/01/27 13:46:52;;;;;;;22.30;10.27;;;;;;;;;;5017087;28;20037;-78
2022/01/27 13:49:32;;;;;;;19.83;8.17;;;;;;;;;;5010999;28;20032;-81
2022/01/27 13:52:04;;;;;;;14.02;7.40;;;;;;;;;;5015040;28;20034;-78
2022/01/27 13:54:37;;;;;;;16.42;8.02;;;;;;;;;;5012301;28;20022;-80
2022/01/27 13:57:16;;;;;;;16.38;9.30;;;;;;;;;;5011151;28;20105;-78
2022/01/27 13:59:59;;;;;;;14.52;6.60;;;;;;;;;;5019577;28;20044;-81
2022/01/27 14:02:33;;;;;;;17.52;9.38;;;;;;;;;;5020011;28;20127;-78
2022/01/27 14:05:00;;;;;;;13.45;7.03;;;;;;;;;;5020623;28;20021;-80
2022/01/27 14:07:31;;;;;;;15.75;9.05;;;;;;;;;;5011817;28;20033;-78
2022/01/27 14:10:11;;;;;;;17.70;10.43;;;;;;;;;;5009937;28;20057;-79
2022/01/27 14:12:45;;;;;;;;;;;;;;;;;;5015605;28;20382;-79
2022/01/27 14:15:26;;;;;;;14.23;7.65;;;;;;;;;;5026868;28;20597;-77
2022/01/27 14:18:04;;;;;;;16.83;9.88;;;;;;;;;;5013692;28;20104;-78
2022/01/27 14:20:30;;;;;;;17.42;9.35;;;;;;;;;;5013512;28;20026;-78
2022/01/27 14:23:20;;;;;;;16.40;8.77;;;;;;;;;;5015273;28;20041;-77
2022/01/27 14:25:57;;;;;;;15.13;8.73;;;;;;;;;;5008684;28;20030;-78
2022/01/27 14:28:23;;;;;;;13.70;7.85;;;;;;;;;;5013700;28;20033;-81
2022/01/27 14:30:50;;;;;;;20.85;8.82;;;;;;;;;;5027093;28;20129;-79
2022/01/27 14:33:15;;;;;;;21.50;10.85;;;;;;;;;;5010478;28;20022;-80
2022/01/27 14:35:44;;;;;;;21.90;10.30;;;;;;;;;;5013867;28;20755;-79
2022/01/27 14:38:10;;;;;;;17.77;11.20;;;;;;;;;;5015181;28;20716;-80
2022/01/27 14:40:35;;;;;;;14.27;8.75;;;;;;;;;;5014267;28;20049;-81
2022/01/27 14:43:02;;;;;;;24.30;10.40;;;;;;;;;;5010968;28;20022;-80
2022/01/27 14:45:29;;;;;;;16.40;10.07;;;;;;;;;;5009001;28;20029;-81
2022/01/27 14:48:00;;;;;;;19.02;10.00;;;;;;;;;;5009615;28;20104;-78
2022/01/27 14:50:27;;;;;;;15.30;8.77;;;;;;;;;;5011726;28;20076;-80
2022/01/27 14:52:55;;;;;;;21.98;11.60;;;;;;;;;;5010125;28;20542;-79
2022/01/27 14:55:21;;;;;;;17.52;9.95;;;;;;;;;;5010114;28;20025;-79
2022/01/27 14:57:46;;;;;;;22.17;12.05;;;;;;;;;;5012418;28;20452;-84
2022/01/27 15:00:16;;;;;;;25.42;11.27;;;;;;;;;;5019926;28;20025;-86
2022/01/27 15:02:41;;;;;;;33.60;16.77;;;;;;;;;;5030325;28;20314;-84
2022/01/27 15:05:07;;;;;;;24.45;14.27;;;;;;;;;;5027574;28;20124;-79
2022/01/27 15:07:33;;;;;;;21.48;11.20;;;;;;;;;;5010303;28;20029;-79
2022/01/27 15:09:59;;;;;;;26.90;12.65;;;;;;;;;;5013318;28;20575;-78
2022/01/27 15:12:24;;;;;;;22.23;10.60;;;;;;;;;;5013584;28;20026;-79
2022/01/27 15:20:21;;;;;;;15.43;9.23;;;;;;;;;;5011861;28;20037;-77
2022/01/27 15:22:47;;;;;;;25.83;14.52;;;;;;;;;;5011758;28;20049;-79
2022/01/27 15:25:15;;;;;;;25.23;13.50;;;;;;;;;;5015501;28;20052;-80
2022/01/27 15:27:40;;;;;;;22.85;13.38;;;;;;;;;;5010199;28;20458;-77
2022/01/27 15:30:07;;;;;;;24.25;11.98;;;;;;;;;;5010824;28;20029;-80
2022/01/27 15:32:33;;;;;;;28.10;14.73;;;;;;;;;;5010831;28;20500;-79
2022/01/27 15:34:59;;;;;;;22.98;11.20;;;;;;;;;;5010759;28;20041;-79
2022/01/27 15:37:25;;;;;;;22.05;11.88;;;;;;;;;;5008140;28;20097;-81
2022/01/27 15:39:57;;;;;;;19.33;12.38;;;;;;;;;;5009112;28;20117;-77
2022/01/27 15:42:23;;;;;;;21.27;10.63;;;;;;;;;;5013004;28;20422;-81
2022/01/27 15:44:48;;;;;;;21.48;13.80;;;;;;;;;;5007750;28;20026;-79
2022/01/27 15:47:14;;;;;;;15.68;8.00;;;;;;;;;;5006740;28;20028;-79
2022/01/27 15:49:43;;;;;;;12.57;7.03;;;;;;;;;;5010207;28;20047;-80
2022/01/27 15:52:09;;;;;;;10.73;6.60;;;;;;;;;;5009605;28;20638;-78
2022/01/27 15:54:35;;;;;;;14.88;7.88;;;;;;;;;;5009382;28;20030;-77
2022/01/27 15:57:02;;;;;;;19.02;10.55;;;;;;;;;;5010102;28;20058;-81
2022/01/27 15:59:28;;;;;;;12.25;7.20;;;;;;;;;;5025105;28;20045;-81
2022/01/27 16:01:55;;;;;;;25.02;14.23;;;;;;;;;;5009712;28;20041;-80
2022/01/27 16:04:21;;;;;;;24.88;12.88;;;;;;;;;;5010190;28;20049;-79
2022/01/27 16:06:47;;;;;;;25.60;12.73;;;;;;;;;;5009430;28;20120;-80